Wetterdaten: Woche 28.03.22 - 03.04.22 (KW13)
Datum Zeit Temp. Aussen Temp. o. S. Temp +5cm Feuchte Auss Luftdruck Regen Sonnenschein Regendauer Solar Windben Empfang
28.03.2022 00:00 9,5 C 7,6 C 4,2 C 78 % 1027,7 hPa 0,0 l/m 0,00 h 0,00 h 0 W/m 0,0 km/h (0 Bft) 98,58 %
28.03.2022 01:00 8,4 C 6,8 C 3,5 C 81 % 1027,3 hPa 0,0 l/m 0,00 h 0,00 h 0 W/m 0,0 km/h (0 Bft) 96,24 %
28.03.2022 02:00 7,5 C 6,2 C 2,9 C 83 % 1026,7 hPa 0,0 l/m 0,00 h 0,00 h 0 W/m 0,1 km/h (0 Bft) 96,95 %
28.03.2022 03:00 6,8 C 5,4 C 2,5 C 86 % 1026,1 hPa 0,0 l/m 0,00 h 0,00 h 0 W/m 0,0 km/h (0 Bft) 95,80 %
28.03.2022 04:00 6,2 C 5,1 C 2,1 C 87 % 1025,6 hPa 0,0 l/m 0,00 h 0,00 h 0 W/m 0,2 km/h (0 Bft) 97,03 %
28.03.2022 05:00 5,6 C 4,4 C 1,6 C 88 % 1025,1 hPa 0,0 l/m 0,00 h 0,00 h 0 W/m 0,1 km/h (0 Bft) 99,71 %
28.03.2022 06:00 5,1 C 4,0 C 1,1 C 90 % 1024,7 hPa 0,0 l/m 0,00 h 0,00 h 0 W/m 0,0 km/h (0 Bft) 97,31 %
28.03.2022 07:00 4,6 C 3,6 C 1,0 C 90 % 1024,6 hPa 0,0 l/m 0,00 h 0,00 h 14 W/m 0,0 km/h (0 Bft) 96,30 %
28.03.2022 08:00 4,7 C 5,1 C 2,0 C 92 % 1024,5 hPa 0,0 l/m 0,00 h 0,00 h 43 W/m 0,6 km/h (0 Bft) 98,29 %
28.03.2022 09:00 6,8 C 9,0 C 4,6 C 94 % 1024,2 hPa 0,0 l/m 0,60 h 0,00 h 189 W/m 1,7 km/h (1 Bft) 96,28 %
28.03.2022 10:00 11,4 C 16,4 C 10,7 C 84 % 1023,7 hPa 0,0 l/m 0,87 h 0,00 h 317 W/m 4,4 km/h (1 Bft) 95,73 %
28.03.2022 11:00 14,3 C 17,8 C 14,6 C 73 % 1023,3 hPa 0,0 l/m 1,00 h 0,00 h 487 W/m 6,5 km/h (2 Bft) 96,37 %
28.03.2022 12:00 16,9 C 22,4 C 19,8 C 66 % 1022,7 hPa 0,0 l/m 1,00 h 0,00 h 645 W/m 8,2 km/h (2 Bft) 96,08 %
28.03.2022 13:00 17,8 C 22,1 C 16,2 C 64 % 1022,0 hPa 0,0 l/m 1,00 h 0,00 h 682 W/m 7,8 km/h (2 Bft) 95,87 %
28.03.2022 14:00 18,9 C 24,9 C 14,9 C 61 % 1021,2 hPa 0,0 l/m 0,97 h 0,00 h 605 W/m 9,4 km/h (2 Bft) 98,93 %
28.03.2022 15:00 18,9 C 23,9 C 14,6 C 61 % 1020,4 hPa 0,0 l/m 1,00 h 0,00 h 573 W/m 11,9 km/h (2 Bft) 97,59 %
28.03.2022 16:00 19,1 C 24,3 C 14,8 C 59 % 1019,6 hPa 0,0 l/m 1,00 h 0,00 h 447 W/m 14,6 km/h (3 Bft) 97,37 %
28.03.2022 17:00 18,3 C 21,7 C 13,8 C 60 % 1019,0 hPa 0,0 l/m 1,00 h 0,00 h 277 W/m 15,8 km/h (3 Bft) 97,93 %
28.03.2022 18:00 16,7 C 17,1 C 12,2 C 65 % 1018,7 hPa 0,0 l/m 0,57 h 0,00 h 114 W/m 16,0 km/h (3 Bft) 96,98 %
28.03.2022 19:00 14,6 C 13,7 C 10,1 C 71 % 1018,5 hPa 0,0 l/m 0,00 h 0,00 h 28 W/m 10,6 km/h (2 Bft) 98,79 %
28.03.2022 20:00 13,3 C 12,1 C 8,5 C 73 % 1018,4 hPa 0,0 l/m 0,00 h 0,00 h 0 W/m 3,8 km/h (1 Bft) 97,15 %
28.03.2022 21:00 12,5 C 11,0 C 7,1 C 74 % 1018,2 hPa 0,0 l/m 0,00 h 0,00 h 0 W/m 0,1 km/h (0 Bft) 96,50 %
28.03.2022 22:00 11,7 C 10,6 C 7,0 C 77 % 1017,9 hPa 0,0 l/m 0,00 h 0,00 h 0 W/m 1,7 km/h (1 Bft) 96,14 %
28.03.2022 23:00 11,3 C 10,4 C 6,7 C 78 % 1017,6 hPa 0,0 l/m 0,00 h 0,00 h 0 W/m 1,5 km/h (1 Bft) 98,22 %
29.03.2022 00:00 10,7 C 9,3 C 5,8 C 79 % 1017,3 hPa 0,0 l/m 0,00 h 0,00 h 0 W/m 1,3 km/h (1 Bft) 96,99 %
29.03.2022 01:00 9,9 C 8,6 C 5,3 C 82 % 1016,9 hPa 0,0 l/m 0,00 h 0,00 h 0 W/m 0,7 km/h (0 Bft) 96,52 %
29.03.2022 02:00 9,1 C 7,7 C 4,4 C 84 % 1016,5 hPa 0,0 l/m 0,00 h 0,00 h 0 W/m 0,5 km/h (0 Bft) 98,36 %
29.03.2022 03:00 8,3 C 7,1 C 4,1 C 87 % 1016,0 hPa 0,0 l/m 0,00 h 0,00 h 0 W/m 0,3 km/h (0 Bft) 96,50 %
29.03.2022 04:00 7,8 C 6,9 C 3,7 C 87 % 1015,3 hPa 0,0 l/m 0,00 h 0,00 h 0 W/m 1,4 km/h (1 Bft) 95,56 %
29.03.2022 05:00 7,8 C 7,2 C 4,3 C 89 % 1014,8 hPa 0,0 l/m 0,00 h 0,00 h 0 W/m 3,9 km/h (1 Bft) 97,65 %
29.03.2022 06:00 7,9 C 7,1 C 3,9 C 89 % 1014,1 hPa 0,0 l/m 0,00 h 0,00 h 0 W/m 4,5 km/h (1 Bft) 97,72 %
29.03.2022 07:00 7,6 C 6,8 C 3,5 C 90 % 1013,8 hPa 0,0 l/m 0,00 h 0,00 h 16 W/m 2,6 km/h (1 Bft) 97,23 %
29.03.2022 08:00 7,8 C 7,9 C 4,4 C 91 % 1013,9 hPa 0,0 l/m 0,00 h 0,00 h 68 W/m 5,3 km/h (1 Bft) 95,66 %
29.03.2022 09:00 8,8 C 9,9 C 5,5 C 89 % 1013,9 hPa 0,0 l/m 0,53 h 0,00 h 173 W/m 8,0 km/h (2 Bft) 99,57 %
29.03.2022 10:00 9,9 C 10,6 C 6,5 C 86 % 1013,6 hPa 0,0 l/m 0,30 h 0,00 h 171 W/m 11,3 km/h (2 Bft) 94,75 %
29.03.2022 11:00 10,3 C 12,1 C 7,7 C 84 % 1013,4 hPa 0,0 l/m 0,67 h 0,00 h 315 W/m 12,9 km/h (3 Bft) 97,08 %
29.03.2022 12:00 11,0 C 12,4 C 7,9 C 82 % 1012,9 hPa 0,0 l/m 0,30 h 0,00 h 274 W/m 11,1 km/h (2 Bft) 98,67 %
29.03.2022 13:00 11,3 C 13,0 C 8,6 C 81 % 1012,4 hPa 0,0 l/m 0,67 h 0,00 h 342 W/m 14,5 km/h (3 Bft) 98,00 %
29.03.2022 14:00 11,7 C 14,6 C 8,5 C 79 % 1011,6 hPa 0,0 l/m 0,77 h 0,00 h 412 W/m 17,8 km/h (3 Bft) 95,16 %
29.03.2022 15:00 12,9 C 17,8 C 9,2 C 74 % 1010,8 hPa 0,0 l/m 1,00 h 0,00 h 516 W/m 18,2 km/h (3 Bft) 99,72 %
29.03.2022 16:00 13,2 C 16,5 C 9,3 C 68 % 1010,2 hPa 0,0 l/m 0,63 h 0,00 h 310 W/m 14,4 km/h (3 Bft) 96,74 %
29.03.2022 17:00 13,2 C 16,0 C 9,4 C 64 % 1009,5 hPa 0,0 l/m 0,97 h 0,00 h 238 W/m 13,5 km/h (3 Bft) 97,14 %
29.03.2022 18:00 12,7 C 12,4 C 8,5 C 64 % 1008,9 hPa 0,0 l/m 0,00 h 0,00 h 80 W/m 12,6 km/h (3 Bft) 98,64 %
29.03.2022 19:00 11,7 C 11,1 C 7,4 C 70 % 1008,7 hPa 0,0 l/m 0,00 h 0,00 h 29 W/m 9,2 km/h (2 Bft) 96,87 %
29.03.2022 20:00 11,0 C 9,8 C 6,4 C 74 % 1008,6 hPa 0,0 l/m 0,00 h 0,00 h 0 W/m 4,1 km/h (1 Bft) 96,86 %
29.03.2022 21:00 10,2 C 9,4 C 5,6 C 75 % 1008,5 hPa 0,0 l/m 0,00 h 0,00 h 0 W/m 4,2 km/h (1 Bft) 99,36 %
29.03.2022 22:00 9,8 C 8,9 C 5,4 C 75 % 1008,2 hPa 0,0 l/m 0,00 h 0,00 h 0 W/m 2,9 km/h (1 Bft) 96,51 %
29.03.2022 23:00 9,3 C 8,5 C 5,0 C 76 % 1008,1 hPa 0,0 l/m 0,00 h 0,00 h 0 W/m 5,1 km/h (1 Bft) 98,15 %
30.03.2022 00:00 9,3 C 8,6 C 5,0 C 74 % 1008,1 hPa 0,0 l/m 0,00 h 0,00 h 0 W/m 10,2 km/h (2 Bft) 97,26 %
30.03.2022 01:00 8,8 C 8,0 C 4,5 C 76 % 1007,7 hPa 0,0 l/m 0,00 h 0,00 h 0 W/m 7,1 km/h (2 Bft) 98,65 %
30.03.2022 02:00 8,4 C 7,8 C 4,4 C 77 % 1007,3 hPa 0,0 l/m 0,00 h 0,00 h 0 W/m 6,6 km/h (2 Bft) 96,15 %
30.03.2022 03:00 8,2 C 7,4 C 4,0 C 77 % 1006,9 hPa 0,0 l/m 0,00 h 0,00 h 0 W/m 9,1 km/h (2 Bft) 98,36 %
30.03.2022 04:00 7,7 C 6,9 C 3,5 C 78 % 1006,3 hPa 0,0 l/m 0,00 h 0,00 h 0 W/m 8,2 km/h (2 Bft) 98,93 %
30.03.2022 05:00 7,0 C 5,9 C 2,6 C 81 % 1005,9 hPa 0,0 l/m 0,00 h 0,00 h 0 W/m 7,1 km/h (2 Bft) 93,86 %
30.03.2022 06:00 6,0 C 4,9 C 1,8 C 84 % 1005,6 hPa 0,0 l/m 0,00 h 0,00 h 0 W/m 5,0 km/h (1 Bft) 97,29 %
30.03.2022 07:00 5,3 C 4,4 C 1,1 C 86 % 1005,5 hPa 0,0 l/m 0,00 h 0,00 h 16 W/m 6,3 km/h (2 Bft) 97,37 %
30.03.2022 08:00 4,9 C 4,6 C 1,2 C 87 % 1005,8 hPa 0,0 l/m 0,00 h 0,00 h 52 W/m 8,2 km/h (2 Bft) 97,87 %
30.03.2022 09:00 5,9 C 7,1 C 2,8 C 87 % 1005,7 hPa 0,0 l/m 0,63 h 0,00 h 205 W/m 9,9 km/h (2 Bft) 96,72 %
30.03.2022 10:00 8,6 C 12,2 C 6,7 C 77 % 1005,5 hPa 0,0 l/m 0,80 h 0,00 h 326 W/m 13,3 km/h (3 Bft) 97,86 %
30.03.2022 11:00 10,6 C 14,1 C 9,7 C 69 % 1005,3 hPa 0,0 l/m 0,93 h 0,00 h 461 W/m 15,5 km/h (3 Bft) 97,58 %
30.03.2022 12:00 12,4 C 18,0 C 13,5 C 63 % 1004,8 hPa 0,0 l/m 1,00 h 0,00 h 651 W/m 14,9 km/h (3 Bft) 98,41 %
30.03.2022 13:00 13,5 C 18,6 C 10,8 C 60 % 1004,2 hPa 0,0 l/m 1,00 h 0,00 h 694 W/m 13,0 km/h (3 Bft) 99,08 %
30.03.2022 14:00 14,3 C 21,1 C 10,5 C 58 % 1003,7 hPa 0,0 l/m 1,00 h 0,00 h 678 W/m 14,9 km/h (3 Bft) 97,08 %
30.03.2022 15:00 14,5 C 20,3 C 10,5 C 57 % 1002,9 hPa 0,0 l/m 0,97 h 0,00 h 571 W/m 14,8 km/h (3 Bft) 97,72 %
30.03.2022 16:00 13,7 C 16,4 C 9,9 C 58 % 1002,3 hPa 0,0 l/m 0,53 h 0,00 h 299 W/m 14,9 km/h (3 Bft) 97,85 %
30.03.2022 17:00 12,8 C 13,9 C 9,1 C 60 % 1001,9 hPa 0,0 l/m 0,70 h 0,00 h 210 W/m 15,9 km/h (3 Bft) 96,50 %
30.03.2022 18:00 11,8 C 11,6 C 7,7 C 63 % 1001,9 hPa 0,0 l/m 0,00 h 0,00 h 91 W/m 16,3 km/h (3 Bft) 98,84 %
30.03.2022 19:00 10,8 C 10,1 C 6,5 C 65 % 1001,9 hPa 0,0 l/m 0,00 h 0,00 h 22 W/m 15,2 km/h (3 Bft) 97,61 %
30.03.2022 20:00 9,6 C 8,8 C 5,2 C 69 % 1002,1 hPa 0,0 l/m 0,00 h 0,00 h 0 W/m 13,3 km/h (3 Bft) 97,57 %
30.03.2022 21:00 8,5 C 7,7 C 4,2 C 73 % 1002,2 hPa 0,0 l/m 0,00 h 0,00 h 0 W/m 13,0 km/h (3 Bft) 96,62 %
30.03.2022 22:00 7,7 C 7,2 C 3,5 C 77 % 1002,2 hPa 0,0 l/m 0,00 h 0,00 h 0 W/m 11,5 km/h (2 Bft) 98,40 %
30.03.2022 23:00 7,4 C 6,7 C 3,3 C 79 % 1002,0 hPa 0,0 l/m 0,00 h 0,00 h 0 W/m 10,2 km/h (2 Bft) 97,29 %
31.03.2022 00:00 7,1 C 6,6 C 3,0 C 79 % 1001,8 hPa 0,0 l/m 0,00 h 0,00 h 0 W/m 7,8 km/h (2 Bft) 96,38 %
31.03.2022 01:00 6,8 C 6,1 C 2,8 C 80 % 1001,4 hPa 0,0 l/m 0,00 h 0,00 h 0 W/m 8,3 km/h (2 Bft) 96,94 %
31.03.2022 02:00 6,5 C 6,1 C 2,4 C 80 % 1000,9 hPa 0,0 l/m 0,00 h 0,00 h 0 W/m 8,5 km/h (2 Bft) 97,87 %
31.03.2022 03:00 6,3 C 5,6 C 2,2 C 81 % 1000,5 hPa 0,0 l/m 0,00 h 0,00 h 0 W/m 8,2 km/h (2 Bft) 97,07 %
31.03.2022 04:00 6,0 C 5,6 C 2,2 C 82 % 999,9 hPa 0,0 l/m 0,00 h 0,00 h 0 W/m 6,9 km/h (2 Bft) 98,09 %
31.03.2022 05:00 5,9 C 5,6 C 2,0 C 84 % 999,5 hPa 0,0 l/m 0,00 h 0,00 h 0 W/m 3,9 km/h (1 Bft) 98,58 %
31.03.2022 06:00 5,9 C 5,0 C 1,7 C 87 % 999,4 hPa 0,2 l/m 0,00 h 0,93 h 0 W/m 4,0 km/h (1 Bft) 94,88 %
31.03.2022 07:00 5,8 C 5,0 C 1,7 C 90 % 999,3 hPa 0,2 l/m 0,00 h 0,83 h 9 W/m 2,1 km/h (1 Bft) 97,36 %
31.03.2022 08:00 6,0 C 5,3 C 1,7 C 93 % 999,4 hPa 0,4 l/m 0,00 h 1,00 h 29 W/m 3,1 km/h (1 Bft) 96,62 %
31.03.2022 09:00 5,9 C 5,5 C 1,9 C 94 % 999,3 hPa 0,2 l/m 0,00 h 0,63 h 86 W/m 5,9 km/h (2 Bft) 97,94 %
31.03.2022 10:00 6,1 C 6,1 C 2,2 C 95 % 999,3 hPa 0,2 l/m 0,00 h 0,73 h 91 W/m 8,2 km/h (2 Bft) 94,64 %
31.03.2022 11:00 6,2 C 6,1 C 2,3 C 95 % 999,4 hPa 0,0 l/m 0,00 h 0,10 h 81 W/m 9,5 km/h (2 Bft) 96,15 %
31.03.2022 12:00 5,9 C 5,7 C 2,2 C 94 % 999,4 hPa 0,0 l/m 0,00 h 0,50 h 55 W/m 11,4 km/h (2 Bft) 98,56 %
31.03.2022 13:00 5,3 C 4,9 C 1,8 C 95 % 999,2 hPa 0,0 l/m 0,00 h 0,00 h 36 W/m 14,3 km/h (3 Bft) 96,22 %
31.03.2022 14:00 4,8 C 4,4 C 1,5 C 95 % 999,1 hPa 0,6 l/m 0,00 h 0,67 h 57 W/m 12,5 km/h (3 Bft) 95,12 %
31.03.2022 15:00 4,9 C 4,6 C 1,2 C 96 % 999,1 hPa 0,6 l/m 0,00 h 1,00 h 73 W/m 12,6 km/h (3 Bft) 97,32 %
31.03.2022 16:00 4,8 C 4,5 C 1,2 C 96 % 998,9 hPa 0,4 l/m 0,00 h 0,80 h 95 W/m 14,5 km/h (3 Bft) 94,99 %
31.03.2022 17:00 4,3 C 3,9 C 0,8 C 96 % 999,0 hPa 0,4 l/m 0,00 h 0,97 h 35 W/m 14,3 km/h (3 Bft) 97,22 %
31.03.2022 18:00 3,5 C 3,0 C 0,1 C 96 % 999,3 hPa 0,0 l/m 0,00 h 0,70 h 14 W/m 12,8 km/h (3 Bft) 97,86 %
31.03.2022 19:00 2,7 C 2,2 C -0,6 C 96 % 999,6 hPa 0,2 l/m 0,00 h 0,83 h 7 W/m 11,3 km/h (2 Bft) 97,27 %
31.03.2022 20:00 2,1 C 1,5 C -1,1 C 96 % 1000,1 hPa 1,0 l/m 0,00 h 0,97 h 0 W/m 11,3 km/h (2 Bft) 96,78 %
31.03.2022 21:00 1,8 C 1,1 C -1,1 C 96 % 1000,5 hPa 0,6 l/m 0,00 h 1,00 h 0 W/m 10,1 km/h (2 Bft) 95,72 %
31.03.2022 22:00 2,0 C 1,5 C -1,0 C 97 % 1000,5 hPa 0,6 l/m 0,00 h 0,97 h 0 W/m 8,6 km/h (2 Bft) 97,75 %
31.03.2022 23:00 2,6 C 2,2 C -0,6 C 97 % 1000,5 hPa 0,2 l/m 0,00 h 0,73 h 0 W/m 14,0 km/h (3 Bft) 97,58 %
01.04.2022 00:00 2,5 C 2,0 C -0,9 C 97 % 1000,8 hPa 0,2 l/m 0,00 h 0,90 h 0 W/m 16,1 km/h (3 Bft) 94,40 %
01.04.2022 01:00 2,2 C 1,7 C -1,1 C 97 % 1001,2 hPa 0,2 l/m 0,00 h 0,60 h 0 W/m 17,6 km/h (3 Bft) 99,26 %
01.04.2022 02:00 1,9 C 1,4 C -1,2 C 97 % 1001,5 hPa 0,2 l/m 0,00 h 0,17 h 0 W/m 20,2 km/h (4 Bft) 97,10 %
01.04.2022 03:00 1,7 C 1,1 C -1,7 C 96 % 1001,9 hPa 0,0 l/m 0,00 h 0,17 h 0 W/m 19,5 km/h (3 Bft) 97,66 %
01.04.2022 04:00 1,3 C 0,8 C -2,1 C 95 % 1002,2 hPa 0,0 l/m 0,00 h 0,28 h 0 W/m 23,0 km/h (4 Bft) 96,16 %
01.04.2022 05:00 1,1 C 0,6 C -2,2 C 94 % 1002,8 hPa 0,0 l/m 0,00 h 0,00 h 0 W/m 24,1 km/h (4 Bft) 99,20 %
01.04.2022 06:00 1,0 C 0,6 C -2,3 C 93 % 1003,5 hPa 0,0 l/m 0,00 h 0,03 h 0 W/m 29,7 km/h (5 Bft) 97,18 %
01.04.2022 07:00 0,9 C 0,6 C -2,2 C 92 % 1004,3 hPa 0,2 l/m 0,00 h 0,00 h 5 W/m 27,7 km/h (4 Bft) 96,32 %
01.04.2022 08:00 1,0 C 0,6 C -2,2 C 91 % 1005,2 hPa 0,0 l/m 0,00 h 0,00 h 17 W/m 22,4 km/h (4 Bft) 97,15 %
01.04.2022 09:00 1,0 C 0,6 C -2,2 C 89 % 1006,0 hPa 0,0 l/m 0,00 h 0,00 h 26 W/m 27,3 km/h (4 Bft) 97,14 %
01.04.2022 10:00 1,1 C 0,6 C -2,1 C 88 % 1006,8 hPa 0,0 l/m 0,00 h 0,00 h 32 W/m 24,6 km/h (4 Bft) 97,51 %
01.04.2022 11:00 1,2 C 0,8 C -2,0 C 86 % 1007,6 hPa 0,0 l/m 0,00 h 0,00 h 34 W/m 26,7 km/h (4 Bft) 96,72 %
01.04.2022 12:00 1,4 C 1,1 C -1,7 C 84 % 1008,1 hPa 0,0 l/m 0,00 h 0,00 h 53 W/m 23,3 km/h (4 Bft) 98,83 %
01.04.2022 13:00 1,6 C 1,4 C -1,7 C 83 % 1008,4 hPa 0,0 l/m 0,00 h 0,00 h 52 W/m 26,8 km/h (4 Bft) 96,37 %
01.04.2022 14:00 1,6 C 1,3 C -1,7 C 84 % 1008,8 hPa 0,0 l/m 0,00 h 0,00 h 53 W/m 27,7 km/h (4 Bft) 98,10 %
01.04.2022 15:00 1,6 C 1,4 C -1,7 C 86 % 1009,3 hPa 0,0 l/m 0,00 h 0,00 h 70 W/m 24,9 km/h (4 Bft) 98,29 %
01.04.2022 16:00 2,0 C 2,1 C -1,3 C 86 % 1009,7 hPa 0,0 l/m 0,00 h 0,00 h 117 W/m 29,0 km/h (5 Bft) 94,95 %
01.04.2022 17:00 1,8 C 1,4 C -2,0 C 90 % 1010,2 hPa 0,2 l/m 0,00 h 0,20 h 80 W/m 19,6 km/h (3 Bft) 97,58 %
01.04.2022 18:00 1,6 C 1,0 C -2,1 C 94 % 1010,8 hPa 0,4 l/m 0,00 h 1,00 h 33 W/m 15,2 km/h (3 Bft) 99,20 %
01.04.2022 19:00 1,1 C 0,5 C -2,5 C 95 % 1011,3 hPa 0,6 l/m 0,00 h 1,00 h 11 W/m 19,6 km/h (3 Bft) 94,03 %
01.04.2022 20:00 0,8 C 0,0 C -2,8 C 96 % 1012,0 hPa 0,4 l/m 0,00 h 0,87 h 0 W/m 20,3 km/h (4 Bft) 98,14 %
01.04.2022 21:00 0,8 C 0,0 C -2,5 C 96 % 1012,6 hPa 0,4 l/m 0,00 h 0,87 h 0 W/m 22,0 km/h (4 Bft) 94,64 %
01.04.2022 22:00 0,9 C 0,6 C -2,2 C 96 % 1013,0 hPa 0,0 l/m 0,00 h 0,10 h 0 W/m 20,1 km/h (4 Bft) 96,86 %
01.04.2022 23:00 0,7 C 0,3 C -2,2 C 96 % 1013,2 hPa 0,2 l/m 0,00 h 0,10 h 0 W/m 21,0 km/h (4 Bft) 97,93 %
02.04.2022 00:00 0,6 C 0,0 C -2,2 C 97 % 1013,4 hPa 0,0 l/m 0,00 h 0,03 h 0 W/m 18,0 km/h (3 Bft) 97,65 %
02.04.2022 01:00 0,6 C 0,0 C -2,2 C 96 % 1013,6 hPa 0,0 l/m 0,00 h 0,00 h 0 W/m 19,2 km/h (3 Bft) 98,79 %
02.04.2022 02:00 0,6 C 0,0 C -2,2 C 96 % 1013,7 hPa 0,0 l/m 0,00 h 0,00 h 0 W/m 17,3 km/h (3 Bft) 93,24 %
02.04.2022 03:00 0,6 C 0,0 C -2,6 C 95 % 1013,8 hPa 0,0 l/m 0,00 h 0,00 h 0 W/m 19,0 km/h (3 Bft) 97,09 %
02.04.2022 04:00 0,7 C 0,1 C -2,8 C 93 % 1013,9 hPa 0,0 l/m 0,00 h 0,00 h 0 W/m 13,2 km/h (3 Bft) 96,82 %
02.04.2022 05:00 0,8 C 0,5 C -2,7 C 89 % 1014,2 hPa 0,0 l/m 0,00 h 0,00 h 0 W/m 14,9 km/h (3 Bft) 96,42 %
02.04.2022 06:00 1,1 C 0,6 C -2,2 C 83 % 1014,5 hPa 0,0 l/m 0,00 h 0,00 h 0 W/m 19,7 km/h (3 Bft) 96,63 %
02.04.2022 07:00 1,3 C 0,8 C -2,2 C 79 % 1015,1 hPa 0,0 l/m 0,00 h 0,00 h 14 W/m 25,0 km/h (4 Bft) 97,41 %
02.04.2022 08:00 1,6 C 1,3 C -1,7 C 78 % 1015,8 hPa 0,0 l/m 0,00 h 0,00 h 51 W/m 21,1 km/h (4 Bft) 96,34 %
02.04.2022 09:00 2,2 C 2,5 C -0,9 C 76 % 1016,5 hPa 0,0 l/m 0,00 h 0,00 h 143 W/m 21,9 km/h (4 Bft) 95,94 %
02.04.2022 10:00 3,0 C 3,6 C -0,0 C 73 % 1017,0 hPa 0,0 l/m 0,03 h 0,00 h 214 W/m 22,2 km/h (4 Bft) 98,93 %
02.04.2022 11:00 3,7 C 4,4 C 0,6 C 71 % 1017,5 hPa 0,0 l/m 0,03 h 0,00 h 232 W/m 22,8 km/h (4 Bft) 96,51 %
02.04.2022 12:00 3,8 C 4,3 C 0,6 C 72 % 1017,9 hPa 0,0 l/m 0,10 h 0,00 h 216 W/m 22,0 km/h (4 Bft) 96,33 %
02.04.2022 13:00 3,7 C 4,2 C 0,3 C 78 % 1018,3 hPa 0,0 l/m 0,10 h 0,00 h 225 W/m 18,7 km/h (3 Bft) 97,59 %
02.04.2022 14:00 4,0 C 5,0 C 1,0 C 80 % 1018,5 hPa 0,0 l/m 0,17 h 0,00 h 226 W/m 16,0 km/h (3 Bft) 97,58 %
02.04.2022 15:00 4,6 C 6,3 C 1,6 C 76 % 1018,5 hPa 0,0 l/m 0,33 h 0,00 h 290 W/m 12,4 km/h (3 Bft) 96,79 %
02.04.2022 16:00 6,0 C 9,6 C 2,8 C 66 % 1018,2 hPa 0,0 l/m 0,67 h 0,00 h 338 W/m 10,7 km/h (2 Bft) 97,43 %
02.04.2022 17:00 6,4 C 7,4 C 2,5 C 56 % 1018,3 hPa 0,0 l/m 0,23 h 0,00 h 157 W/m 19,6 km/h (3 Bft) 98,02 %
02.04.2022 18:00 5,8 C 6,3 C 1,9 C 56 % 1018,8 hPa 0,0 l/m 0,33 h 0,00 h 115 W/m 21,3 km/h (4 Bft) 96,32 %
02.04.2022 19:00 5,3 C 4,8 C 1,0 C 59 % 1019,3 hPa 0,0 l/m 0,00 h 0,00 h 23 W/m 14,8 km/h (3 Bft) 97,29 %
02.04.2022 20:00 4,4 C 3,4 C -0,2 C 61 % 1020,1 hPa 0,0 l/m 0,00 h 0,00 h 6 W/m 11,8 km/h (2 Bft) 94,98 %
02.04.2022 21:00 3,4 C 2,5 C -0,9 C 67 % 1020,8 hPa 0,0 l/m 0,00 h 0,00 h 0 W/m 9,2 km/h (2 Bft) 98,14 %
02.04.2022 22:00 2,7 C 1,7 C -1,7 C 69 % 1021,3 hPa 0,0 l/m 0,00 h 0,00 h 0 W/m 8,5 km/h (2 Bft) 95,89 %
02.04.2022 23:00 2,3 C 1,6 C -1,8 C 70 % 1021,8 hPa 0,0 l/m 0,00 h 0,00 h 0 W/m 12,2 km/h (3 Bft) 95,47 %
03.04.2022 00:00 2,2 C 1,3 C -2,1 C 71 % 1022,2 hPa 0,0 l/m 0,00 h 0,00 h 0 W/m 9,4 km/h (2 Bft) 99,08 %
03.04.2022 01:00 2,0 C 1,1 C -2,3 C 73 % 1022,5 hPa 0,0 l/m 0,00 h 0,00 h 0 W/m 7,1 km/h (2 Bft) 97,24 %
03.04.2022 02:00 1,2 C 0,4 C -2,9 C 77 % 1022,6 hPa 0,0 l/m 0,00 h 0,00 h 0 W/m 7,3 km/h (2 Bft) 97,72 %
03.04.2022 03:00 0,8 C -0,1 C -3,2 C 78 % 1022,6 hPa 0,0 l/m 0,00 h 0,00 h 0 W/m 5,5 km/h (1 Bft) 94,74 %
03.04.2022 04:00 0,2 C -0,8 C -4,0 C 79 % 1022,5 hPa 0,0 l/m 0,00 h 0,00 h 0 W/m 1,6 km/h (1 Bft) 96,83 %
03.04.2022 05:00 -0,6 C -1,7 C -4,8 C 81 % 1022,6 hPa 0,0 l/m 0,00 h 0,00 h 0 W/m 3,4 km/h (1 Bft) 98,22 %
03.04.2022 06:00 -1,4 C -2,5 C -5,5 C 82 % 1022,9 hPa 0,0 l/m 0,00 h 0,00 h 0 W/m 0,9 km/h (0 Bft) 96,76 %
03.04.2022 07:00 -1,8 C -2,6 C -5,6 C 84 % 1023,4 hPa 0,0 l/m 0,00 h 0,00 h 15 W/m 3,0 km/h (1 Bft) 95,80 %
03.04.2022 08:00 -1,5 C -1,5 C -4,7 C 85 % 1023,7 hPa 0,0 l/m 0,00 h 0,00 h 33 W/m 2,3 km/h (1 Bft) 99,65 %
03.04.2022 09:00 0,7 C 3,1 C -2,5 C 83 % 1023,8 hPa 0,0 l/m 0,80 h 0,00 h 317 W/m 1,0 km/h (0 Bft) 93,98 %
03.04.2022 10:00 4,9 C 8,7 C 2,7 C 67 % 1024,1 hPa 0,0 l/m 0,70 h 0,00 h 355 W/m 7,4 km/h (2 Bft) 98,11 %
03.04.2022 11:00 5,6 C 6,7 C 2,6 C 61 % 1024,2 hPa 0,0 l/m 0,40 h 0,00 h 309 W/m 12,5 km/h (3 Bft) 99,14 %
03.04.2022 12:00 6,3 C 9,1 C 6,1 C 62 % 1024,0 hPa 0,0 l/m 0,70 h 0,00 h 552 W/m 11,8 km/h (2 Bft) 96,14 %
03.04.2022 13:00 8,2 C 11,6 C 5,6 C 60 % 1023,4 hPa 0,0 l/m 0,77 h 0,00 h 657 W/m 11,6 km/h (2 Bft) 99,30 %
03.04.2022 14:00 8,4 C 10,2 C 4,6 C 57 % 1022,8 hPa 0,0 l/m 0,47 h 0,00 h 369 W/m 12,8 km/h (3 Bft) 95,18 %
03.04.2022 15:00 7,0 C 8,2 C 3,1 C 64 % 1022,7 hPa 0,0 l/m 0,37 h 0,00 h 265 W/m 11,8 km/h (2 Bft) 96,86 %
03.04.2022 16:00 7,8 C 8,4 C 4,1 C 62 % 1021,9 hPa 0,0 l/m 0,40 h 0,00 h 248 W/m 11,9 km/h (2 Bft) 97,57 %
03.04.2022 17:00 7,7 C 8,5 C 3,7 C 63 % 1021,6 hPa 0,0 l/m 0,33 h 0,00 h 220 W/m 13,6 km/h (3 Bft) 97,35 %
03.04.2022 18:00 6,9 C 6,4 C 2,6 C 71 % 1021,6 hPa 0,0 l/m 0,07 h 0,00 h 61 W/m 12,8 km/h (3 Bft) 98,52 %
03.04.2022 19:00 6,0 C 5,4 C 1,9 C 76 % 1021,5 hPa 0,0 l/m 0,00 h 0,00 h 20 W/m 7,2 km/h (2 Bft) 97,60 %
03.04.2022 20:00 5,6 C 4,8 C 1,5 C 79 % 1021,4 hPa 0,0 l/m 0,00 h 0,00 h 4 W/m 4,2 km/h (1 Bft) 96,15 %
03.04.2022 21:00 4,9 C 3,8 C 0,3 C 81 % 1021,6 hPa 0,0 l/m 0,00 h 0,00 h 0 W/m 2,2 km/h (1 Bft) 98,08 %
03.04.2022 22:00 4,0 C 2,9 C -0,4 C 82 % 1021,5 hPa 0,0 l/m 0,00 h 0,00 h 0 W/m 3,0 km/h (1 Bft) 98,43 %
03.04.2022 23:00 3,2 C 2,1 C -1,0 C 83 % 1021,2 hPa 0,0 l/m 0,00 h 0,00 h 0 W/m 3,1 km/h (1 Bft) 95,48 %
Min-Datum _ 03.04.22 03.04.22 03.04.22 02.04.22 31.03.22 - - - - 28.03.22 29.03.22
_ Min-Zeit 07:48 06:16 06:08 17:34 16:24 - - - - 00:00 10:40
Minimum _ -1,9 C -2,8 C -5,6 C 54 % 998,8 hPa - - - - 0,0 km/h (0 Bft) 27,59 %
Max-Datum _ 28.03.22 28.03.22 28.03.22 31.03.22 28.03.22 31.03.22 28.03.22 01.04.22 03.04.22 01.04.22 28.03.22
_ Max-Zeit 16:16 14:06 12:38 21:16 00:00 20:08 12:08 04:05 13:16 13:26 00:20
Maximum _ 19,3 C 26,7 C 21,7 C 97 % 1028,0 hPa 1,0 l/m 0,07 h 0,08 h 938 W/m 54,7 km/h
O (7 Bft)
100,00 %
Durchschnitt _ 6,3 C 6,6 C 2,7 C 80 % 1012,3 hPa #8,8 l/m #29:24 h #19:41 h 200 W/m 11,4 km/h (2 Bft) 97,15 %
© 2022 W. Hausmann